Angisoq

KL  EN  DA
ASIAQ
Weather Now GREENLAND SURVEY
Updated [WGT/WGST] Temperature [°C] Wind [m/s] Air pressure [hPa] Relative humidity [%] Precipitation [mm]
Present Wind chill Speed Max
25.02 08:00-5,9-11,64,1 ⇘5,1101342n/a
25.02 07:00-6,1-13,66,7 ⇘8,8101343n/a
25.02 06:00-6,3-14,17,2 ⇘9,8101349n/a
25.02 05:00-6,6-15,79,8 ⇘12,4101450n/a
25.02 04:00-6,4-15,49,8 ⇘12,9101449n/a
25.02 03:00-6,3-16,011,8 ⇘14,4101451n/a
25.02 02:00-6,5-17,013,9 ⇘16,5101449n/a
25.02 01:00-6,4-17,315,4 ⇘19,6101350n/a
25.02 00:00-6,0-16,916,0 ⇘19,6101351n/a
24.02 23:00-5,6-16,516,5 ⇘20,1101253n/a
24.02 22:00-5,7-17,319,6 ⇘24,2101152n/a
24.02 21:00-5,8-17,218,5 ⇘22,7101159n/a
24.02 20:00-6,0-17,619,0 ⇘24,2100948n/a
24.02 19:00-6,0-17,719,6 ⇘25,2100853n/a
24.02 18:00-5,7-17,319,6 ⇘23,7100755n/a
24.02 17:00-5,1-16,419,0 ⇘24,2100657n/a
24.02 16:00-5,5-17,220,1 ⇘23,7100554n/a
24.02 15:00-5,5-16,919,0 ⇘23,2100363n/a
24.02 14:00-5,3-16,920,1 ⇘24,7100266n/a
24.02 13:00-5,8-15,913,4 ⇒16,5100169n/a
24.02 12:00-5,6-15,914,4 ⇒17,0100146n/a
24.02 11:00-5,1-15,314,9 ⇘18,0100151n/a
24.02 10:00-5,6-17,119,0 ⇘23,2100059n/a
24.02 09:00-5,8-17,017,5 ⇘21,199984n/a
24.02 08:00-5,1-14,311,3 ⇒13,499880n/a
Position: (59.9911111111,-45.14611111)

[Back]